Time;durP1;ratioP1;P1;durP2;ratioP2;P2;SDS_P1;SDS_P2;PMS_P1;PMS_P2;Temp;Humidity;BMP_temperature;BMP_pressure;BME280_temperature;BME280_humidity;BME280_pressure;Samples;Min_cycle;Max_cycle;Signal;HPM_P1;HPM_P2
2022/08/18 00:01:21;;;;;;;11.50;7.97;;;26.40;73.00;;;;;;5050414;28;20036;-67
2022/08/18 00:03:47;;;;;;;11.05;8.05;;;26.40;73.10;;;;;;5034106;28;20368;-68
2022/08/18 00:06:13;;;;;;;10.85;6.95;;;26.40;73.20;;;;;;5050663;28;20098;-68
2022/08/18 00:08:39;;;;;;;9.75;7.22;;;26.40;73.20;;;;;;5053856;28;20500;-68
2022/08/18 00:11:05;;;;;;;9.52;7.82;;;26.40;73.30;;;;;;5051690;28;20480;-68
2022/08/18 00:13:31;;;;;;;11.13;7.50;;;26.40;73.40;;;;;;5052546;28;20025;-68
2022/08/18 00:15:57;;;;;;;9.80;8.02;;;26.30;73.40;;;;;;5058714;28;20017;-68
2022/08/18 00:18:22;;;;;;;11.43;8.02;;;26.30;73.50;;;;;;5052247;28;20029;-68
2022/08/18 00:20:48;;;;;;;9.90;7.97;;;26.30;73.70;;;;;;5053088;28;20054;-68
2022/08/18 00:23:14;;;;;;;9.32;7.70;;;26.30;73.80;;;;;;5051550;28;20029;-68
2022/08/18 00:25:40;;;;;;;8.38;7.45;;;26.30;74.00;;;;;;5053311;28;20033;-68
2022/08/18 00:28:05;;;;;;;9.90;7.72;;;26.20;73.90;;;;;;5052144;28;20024;-67
2022/08/18 00:30:32;;;;;;;29.05;8.15;;;26.20;74.00;;;;;;5052753;28;20036;-67
2022/08/18 00:32:59;;;;;;;10.73;7.45;;;26.20;74.10;;;;;;5052060;28;20371;-66
2022/08/18 00:35:34;;;;;;;9.25;7.57;;;26.20;74.10;;;;;;5053012;28;20373;-68
2022/08/18 00:38:02;;;;;;;8.52;7.43;;;26.20;74.10;;;;;;5051353;28;20055;-67
2022/08/18 00:40:40;;;;;;;8.40;7.43;;;26.20;74.30;;;;;;5052975;28;20024;-68
2022/08/18 00:43:11;;;;;;;8.65;7.75;;;26.10;74.30;;;;;;5051037;28;20029;-67
2022/08/18 00:45:40;;;;;;;8.55;7.65;;;26.10;74.40;;;;;;5051889;28;20029;-67
2022/08/18 00:48:07;;;;;;;10.50;7.63;;;26.10;74.60;;;;;;5051120;28;20033;-68
2022/08/18 00:50:50;;;;;;;9.32;7.22;;;26.10;74.60;;;;;;5051324;28;20061;-67
2022/08/18 00:53:26;;;;;;;8.85;7.70;;;26.10;74.50;;;;;;5051938;28;20094;-67
2022/08/18 00:55:53;;;;;;;8.73;7.72;;;26.00;74.60;;;;;;5051492;28;20029;-67
2022/08/18 00:58:31;;;;;;;10.05;7.93;;;26.00;74.40;;;;;;5051699;28;20060;-67
2022/08/18 01:00:59;;;;;;;9.07;7.72;;;26.00;74.70;;;;;;5051746;28;20037;-68
2022/08/18 01:03:25;;;;;;;9.07;7.35;;;26.00;74.70;;;;;;5051298;28;20029;-67
2022/08/18 01:06:12;;;;;;;9.18;7.13;;;26.00;74.90;;;;;;5051756;28;20041;-67
2022/08/18 01:08:39;;;;;;;11.05;8.50;;;25.90;74.80;;;;;;5020767;28;20181;-68
2022/08/18 01:11:05;;;;;;;8.85;7.70;;;25.90;75.10;;;;;;5050905;28;20037;-67
2022/08/18 01:13:34;;;;;;;8.52;7.63;;;25.90;75.10;;;;;;5052255;28;20083;-67
2022/08/18 01:21:49;;;;;;;9.48;8.45;;;25.90;75.30;;;;;;5050074;28;20500;-67
2022/08/18 01:21:52;;;;;;;10.25;8.63;;;25.80;75.30;;;;;;5051549;28;20029;-66
2022/08/18 01:27:17;;;;;;;8.25;7.45;;;25.70;75.60;;;;;;5050735;28;20036;-67
2022/08/18 01:29:47;;;;;;;8.88;7.97;;;25.70;75.80;;;;;;5051932;28;20033;-67
2022/08/18 01:32:19;;;;;;;9.63;8.30;;;25.70;76.10;;;;;;5050322;28;20029;-67
2022/08/18 01:34:47;;;;;;;9.38;8.30;;;25.70;76.20;;;;;;5051597;28;20037;-67
2022/08/18 01:37:16;;;;;;;9.10;8.05;;;25.70;76.50;;;;;;5050801;28;20029;-67
2022/08/18 01:39:43;;;;;;;10.07;8.43;;;25.60;76.50;;;;;;5050692;28;20028;-68
2022/08/18 01:42:09;;;;;;;12.20;7.63;;;25.60;76.90;;;;;;5051298;28;20025;-67
2022/08/18 01:44:34;;;;;;;10.32;8.32;;;25.50;76.80;;;;;;5033318;28;20083;-68
2022/08/18 01:47:00;;;;;;;9.63;8.32;;;25.50;76.90;;;;;;5050656;28;20029;-67
2022/08/18 01:49:27;;;;;;;9.43;7.78;;;25.60;77.10;;;;;;5049927;28;20029;-67
2022/08/18 01:51:54;;;;;;;9.43;8.02;;;25.50;77.10;;;;;;5050410;28;20037;-68
2022/08/18 01:54:20;;;;;;;10.50;8.23;;;25.50;77.40;;;;;;5051444;28;20112;-68
2022/08/18 01:56:48;;;;;;;8.35;7.55;;;25.50;77.50;;;;;;5051189;28;20033;-68
2022/08/18 01:59:14;;;;;;;10.10;8.18;;;25.50;77.60;;;;;;5051088;28;20032;-68
2022/08/18 02:01:46;;;;;;;8.88;7.78;;;25.40;77.80;;;;;;5050576;28;20080;-68
2022/08/18 02:04:14;;;;;;;9.60;8.30;;;25.40;78.10;;;;;;5051246;28;20116;-68
2022/08/18 02:06:40;;;;;;;9.98;7.85;;;25.30;77.90;;;;;;5050085;28;20110;-68
2022/08/18 02:09:06;;;;;;;10.57;7.47;;;25.40;78.10;;;;;;5037502;28;20439;-67
2022/08/18 02:11:32;;;;;;;9.60;8.20;;;25.30;78.00;;;;;;5050865;28;20074;-68
2022/08/18 02:13:57;;;;;;;10.15;8.43;;;25.30;78.30;;;;;;5051041;28;20033;-67
2022/08/18 02:16:23;;;;;;;9.18;8.05;;;25.30;78.30;;;;;;5049812;28;20074;-68
2022/08/18 02:18:48;;;;;;;8.85;7.95;;;25.30;78.50;;;;;;5049468;28;20078;-68
2022/08/18 02:21:18;;;;;;;10.43;8.30;;;25.20;78.50;;;;;;5050426;28;20021;-68
2022/08/18 02:23:44;;;;;;;9.30;8.40;;;25.20;78.50;;;;;;5050169;28;20040;-68
2022/08/18 02:26:14;;;;;;;9.40;7.50;;;25.10;78.60;;;;;;5050082;28;20047;-67
2022/08/18 02:28:40;;;;;;;10.40;8.38;;;25.10;78.70;;;;;;5051551;28;20048;-67
2022/08/18 02:31:17;;;;;;;9.30;8.40;;;25.10;78.90;;;;;;5049913;28;20063;-69
2022/08/18 02:33:44;;;;;;;9.68;8.23;;;25.00;79.00;;;;;;5050663;28;20056;-68
2022/08/18 02:36:11;;;;;;;10.82;8.90;;;25.00;79.20;;;;;;5050352;28;20103;-68
2022/08/18 02:38:37;;;;;;;9.90;8.63;;;25.00;79.30;;;;;;5050909;28;20033;-69
2022/08/18 02:41:06;;;;;;;9.15;7.88;;;25.00;79.50;;;;;;5050293;28;20021;-68
2022/08/18 02:43:32;;;;;;;10.20;8.55;;;25.00;79.80;;;;;;5050171;28;20065;-68
2022/08/18 02:45:58;;;;;;;11.32;8.20;;;24.90;80.00;;;;;;5050155;28;20337;-68
2022/08/18 02:48:33;;;;;;;9.75;8.45;;;24.90;80.00;;;;;;5050723;28;20440;-68
2022/08/18 02:51:14;;;;;;;9.48;8.18;;;24.90;80.10;;;;;;5031790;28;20051;-68
2022/08/18 02:53:41;;;;;;;26.17;9.63;;;24.80;80.10;;;;;;5050615;28;20029;-69
2022/08/18 02:56:21;;;;;;;10.98;8.63;;;24.90;80.40;;;;;;5049634;28;20029;-68
2022/08/18 02:58:48;;;;;;;11.20;9.10;;;24.90;80.60;;;;;;5046859;28;20036;-68
2022/08/18 03:01:14;;;;;;;9.88;8.20;;;24.80;80.60;;;;;;5051441;28;20033;-68
2022/08/18 03:03:39;;;;;;;10.63;8.43;;;24.70;80.90;;;;;;5054657;28;20480;-68
2022/08/18 03:06:05;;;;;;;10.15;8.48;;;24.70;81.10;;;;;;5053315;28;20053;-68
2022/08/18 03:08:31;;;;;;;10.10;9.10;;;24.70;81.20;;;;;;5055120;28;20072;-68
2022/08/18 03:10:57;;;;;;;9.38;8.38;;;24.70;81.30;;;;;;5053033;28;20029;-68
2022/08/18 03:13:22;;;;;;;14.05;8.45;;;24.60;81.30;;;;;;5035542;28;20029;-68
2022/08/18 03:15:48;;;;;;;10.48;8.45;;;24.60;81.50;;;;;;5054051;28;20029;-68
2022/08/18 03:18:13;;;;;;;10.20;8.68;;;24.60;81.80;;;;;;5052245;28;20064;-69
2022/08/18 03:20:40;;;;;;;10.23;8.60;;;24.60;82.10;;;;;;5053317;28;20059;-68
2022/08/18 03:23:05;;;;;;;11.57;8.98;;;24.60;82.20;;;;;;5052978;28;20152;-69
2022/08/18 03:25:31;;;;;;;9.70;8.60;;;24.50;82.70;;;;;;5052863;28;20116;-68
2022/08/18 03:27:57;;;;;;;10.27;8.20;;;24.50;82.40;;;;;;5054277;28;20506;-68
2022/08/18 03:30:22;;;;;;;11.13;8.52;;;24.50;82.50;;;;;;5053891;28;20032;-68
2022/08/18 03:32:51;;;;;;;10.50;8.80;;;24.50;82.80;;;;;;5054687;28;20028;-68
2022/08/18 03:35:17;;;;;;;10.98;8.88;;;24.50;82.90;;;;;;5053198;28;20114;-68
2022/08/18 03:37:43;;;;;;;9.73;8.25;;;24.40;83.00;;;;;;5054122;28;20460;-68
2022/08/18 03:40:12;;;;;;;10.93;8.73;;;24.40;83.30;;;;;;5054281;28;20025;-68
2022/08/18 03:42:38;;;;;;;11.93;8.80;;;24.40;83.50;;;;;;5053550;28;20051;-68
2022/08/18 03:45:05;;;;;;;9.48;8.43;;;24.40;83.50;;;;;;5054305;28;20484;-68
2022/08/18 03:47:31;;;;;;;10.43;9.23;;;24.40;83.70;;;;;;5051374;28;20480;-68
2022/08/18 03:49:56;;;;;;;11.80;8.55;;;24.40;84.00;;;;;;5054205;28;20111;-68
2022/08/18 03:52:22;;;;;;;14.55;9.10;;;24.40;84.10;;;;;;5052404;28;20128;-68
2022/08/18 03:54:47;;;;;;;9.38;8.38;;;24.40;84.30;;;;;;5054280;28;20440;-68
2022/08/18 03:57:13;;;;;;;10.65;7.97;;;24.30;84.20;;;;;;5053415;28;20047;-69
2022/08/18 03:59:42;;;;;;;10.05;8.80;;;24.30;84.50;;;;;;5053862;28;20128;-68
2022/08/18 04:02:09;;;;;;;11.07;9.18;;;24.30;84.70;;;;;;5053812;28;20033;-68
2022/08/18 04:04:35;;;;;;;9.98;8.30;;;24.30;84.90;;;;;;5053817;28;20036;-67
2022/08/18 04:07:05;;;;;;;10.52;9.52;;;24.30;85.10;;;;;;5021265;28;20045;-68
2022/08/18 04:09:33;;;;;;;9.65;8.63;;;24.30;85.30;;;;;;5053138;28;20052;-68
2022/08/18 04:12:11;;;;;;;10.50;9.43;;;24.30;85.30;;;;;;5062113;28;20025;-68
2022/08/18 04:14:39;;;;;;;10.88;9.77;;;24.20;85.20;;;;;;5064280;28;20495;-68
2022/08/18 04:17:05;;;;;;;14.00;8.82;;;24.30;85.50;;;;;;5059981;28;20036;-69
2022/08/18 04:19:33;;;;;;;10.90;9.77;;;24.20;85.70;;;;;;5070143;28;20021;-71
2022/08/18 04:22:01;;;;;;;11.40;8.85;;;24.20;85.70;;;;;;5081028;28;20037;-69
2022/08/18 04:24:28;;;;;;;11.07;9.10;;;24.20;85.90;;;;;;5054542;28;20385;-70
2022/08/18 04:26:56;;;;;;;9.90;8.82;;;24.20;86.10;;;;;;5054708;28;20025;-69
2022/08/18 04:29:21;;;;;;;11.52;8.95;;;24.20;86.10;;;;;;5037101;28;20041;-69
2022/08/18 04:31:50;;;;;;;11.32;9.90;;;24.20;86.20;;;;;;5052629;28;20040;-69
2022/08/18 04:34:17;;;;;;;11.90;10.35;;;24.20;86.50;;;;;;5052484;28;20040;-69
2022/08/18 04:36:43;;;;;;;10.23;9.23;;;24.20;86.60;;;;;;5052459;28;20067;-69
2022/08/18 04:39:10;;;;;;;11.05;9.75;;;24.20;86.80;;;;;;5053657;28;20425;-69
2022/08/18 04:41:37;;;;;;;10.30;9.30;;;24.20;86.70;;;;;;5053340;28;20459;-68
2022/08/18 04:44:06;;;;;;;11.90;9.57;;;24.20;86.60;;;;;;5051095;28;20036;-69
2022/08/18 04:46:38;;;;;;;12.68;10.05;;;24.30;86.70;;;;;;5053533;28;20528;-69
2022/08/18 04:49:06;;;;;;;16.92;9.85;;;24.20;86.90;;;;;;5052381;28;20044;-69
2022/08/18 04:51:32;;;;;;;11.07;9.30;;;24.20;87.00;;;;;;5053050;28;20043;-69
2022/08/18 04:53:59;;;;;;;12.10;10.23;;;24.20;87.20;;;;;;5048983;28;20462;-69
2022/08/18 04:56:35;;;;;;;13.60;12.15;;;24.30;87.60;;;;;;5050439;28;20104;-70
2022/08/18 04:59:05;;;;;;;11.13;10.02;;;24.30;87.90;;;;;;5052229;28;20037;-69
2022/08/18 05:01:36;;;;;;;23.55;21.05;;;24.30;87.90;;;;;;5051830;28;20033;-70
2022/08/18 05:04:04;;;;;;;35.72;31.90;;;24.30;87.90;;;;;;5051783;28;20552;-70
2022/08/18 05:06:30;;;;;;;17.38;13.23;;;24.30;88.20;;;;;;5032677;28;20061;-69
2022/08/18 05:08:58;;;;;;;13.63;10.80;;;24.40;88.00;;;;;;5042175;28;20094;-69
2022/08/18 05:11:28;;;;;;;14.55;10.25;;;24.40;88.10;;;;;;5052609;28;20064;-69
2022/08/18 05:13:56;;;;;;;21.17;15.80;;;24.40;88.00;;;;;;5051719;28;20380;-69
2022/08/18 05:16:21;;;;;;;15.45;13.13;;;24.40;88.30;;;;;;5034510;28;20021;-70
2022/08/18 05:18:47;;;;;;;18.40;15.18;;;24.50;88.20;;;;;;5051373;28;20074;-69
2022/08/18 05:21:14;;;;;;;13.40;11.45;;;24.50;88.40;;;;;;5058492;28;20025;-70
2022/08/18 05:23:44;;;;;;;13.68;10.90;;;24.50;88.10;;;;;;5067085;28;20031;-70
2022/08/18 05:26:12;;;;;;;21.30;14.98;;;24.50;88.20;;;;;;5053234;28;20080;-70
2022/08/18 05:28:38;;;;;;;13.75;11.27;;;24.60;88.40;;;;;;5052704;28;20033;-70
2022/08/18 05:31:13;;;;;;;13.20;11.70;;;24.60;88.10;;;;;;5051851;28;20335;-70
2022/08/18 05:33:39;;;;;;;11.27;10.10;;;24.60;88.10;;;;;;5052048;28;20037;-69
2022/08/18 05:36:29;;;;;;;12.43;10.68;;;24.60;87.80;;;;;;5051702;28;20036;-69
2022/08/18 05:39:13;;;;;;;13.23;9.63;;;24.60;87.60;;;;;;5058091;28;20045;-69
2022/08/18 05:41:42;;;;;;;13.43;10.23;;;24.70;87.40;;;;;;5062362;28;20357;-69
2022/08/18 05:44:14;;;;;;;13.80;10.55;;;24.60;87.60;;;;;;5052279;28;20107;-69
2022/08/18 05:46:46;;;;;;;14.88;11.25;;;24.70;87.90;;;;;;5051855;28;20037;-69
2022/08/18 05:49:14;;;;;;;16.92;14.07;;;24.70;88.10;;;;;;5051513;28;20048;-69
2022/08/18 05:51:53;;;;;;;13.77;10.60;;;24.70;88.10;;;;;;5051333;28;20721;-69
2022/08/18 05:57:18;;;;;;;14.70;10.82;;;24.70;87.60;;;;;;5051893;28;20055;-69
2022/08/18 05:59:45;;;;;;;13.02;10.38;;;24.70;87.50;;;;;;5051795;28;20658;-69
2022/08/18 06:02:14;;;;;;;12.90;11.25;;;24.80;87.70;;;;;;5051438;28;20029;-69
2022/08/18 06:04:46;;;;;;;13.65;11.75;;;24.80;87.70;;;;;;5051253;28;20098;-69
2022/08/18 06:07:17;;;;;;;12.48;10.30;;;24.90;87.60;;;;;;5051132;28;20078;-69
2022/08/18 06:09:52;;;;;;;17.02;10.70;;;25.00;87.50;;;;;;5054273;28;20485;-69
2022/08/18 06:12:33;;;;;;;13.13;11.75;;;25.00;87.30;;;;;;5046979;28;20028;-69
2022/08/18 06:15:27;;;;;;;13.25;10.15;;;25.10;87.50;;;;;;5051121;28;20098;-69
2022/08/18 06:17:58;;;;;;;12.00;10.63;;;25.20;87.30;;;;;;5050228;28;20068;-69
2022/08/18 06:20:37;;;;;;;12.02;9.73;;;25.30;87.00;;;;;;5051708;28;20100;-69
2022/08/18 06:23:19;;;;;;;16.15;11.57;;;25.30;86.60;;;;;;5050611;28;20025;-69
2022/08/18 06:26:02;;;;;;;13.73;9.90;;;25.40;86.70;;;;;;5033119;28;20032;-69
2022/08/18 06:28:41;;;;;;;13.40;10.13;;;25.50;87.00;;;;;;5051324;28;20476;-69
2022/08/18 06:31:28;;;;;;;14.50;11.13;;;25.60;86.90;;;;;;5050989;28;20078;-69
2022/08/18 06:34:00;;;;;;;15.93;10.30;;;25.70;85.70;;;;;;5050454;28;20500;-68
2022/08/18 06:36:58;;;;;;;12.23;10.25;;;25.80;85.80;;;;;;5055122;28;20067;-68
2022/08/18 06:39:45;;;;;;;12.63;11.25;;;25.80;85.90;;;;;;5057835;28;20024;-69
2022/08/18 06:42:11;;;;;;;13.90;11.40;;;25.90;85.50;;;;;;5057621;28;20041;-69
2022/08/18 06:44:47;;;;;;;14.55;10.73;;;26.00;84.70;;;;;;5057989;28;20025;-69
2022/08/18 06:47:46;;;;;;;12.88;11.13;;;26.00;85.00;;;;;;5055410;28;20044;-69
2022/08/18 06:50:21;;;;;;;14.68;11.05;;;26.10;84.60;;;;;;5057789;28;20480;-68
2022/08/18 06:52:59;;;;;;;13.45;11.02;;;26.10;85.00;;;;;;5057087;28;20051;-69
2022/08/18 06:55:41;;;;;;;14.45;11.50;;;26.20;84.20;;;;;;5058117;28;20025;-68
2022/08/18 06:58:12;;;;;;;12.02;10.75;;;26.30;84.50;;;;;;5045864;28;20029;-69
2022/08/18 07:00:42;;;;;;;11.52;10.35;;;26.40;84.40;;;;;;5056667;28;20033;-68
2022/08/18 07:03:13;;;;;;;12.55;10.30;;;26.40;85.20;;;;;;5055259;28;20064;-69
2022/08/18 07:06:01;;;;;;;13.95;11.52;;;26.50;85.00;;;;;;5055468;28;20262;-69
2022/08/18 07:08:39;;;;;;;14.00;11.15;;;26.60;84.50;;;;;;5039343;28;20036;-69
2022/08/18 07:11:23;;;;;;;12.98;11.05;;;26.60;84.30;;;;;;5057366;28;20017;-68
2022/08/18 07:13:53;;;;;;;17.98;11.00;;;26.70;84.20;;;;;;5057506;28;20025;-68
2022/08/18 07:16:29;;;;;;;12.13;10.05;;;26.70;83.80;;;;;;5056924;28;20022;-68
2022/08/18 07:19:21;;;;;;;13.70;10.30;;;26.80;83.10;;;;;;5057364;28;20116;-68
2022/08/18 07:22:08;;;;;;;12.73;10.90;;;26.90;83.40;;;;;;5056793;28;20356;-68
2022/08/18 07:24:40;;;;;;;13.20;10.77;;;27.00;82.50;;;;;;5057123;28;20095;-69
2022/08/18 07:27:11;;;;;;;15.57;11.15;;;27.00;81.80;;;;;;5038753;28;20025;-69
2022/08/18 07:29:56;;;;;;;12.60;10.43;;;27.10;81.70;;;;;;5048720;28;20041;-68
2022/08/18 07:32:23;;;;;;;14.25;11.13;;;27.10;81.30;;;;;;5037473;28;20032;-69
2022/08/18 07:34:54;;;;;;;15.60;10.75;;;27.10;81.10;;;;;;5057246;28;20040;-69
2022/08/18 07:37:42;;;;;;;14.52;11.18;;;27.20;82.10;;;;;;5056053;28;20029;-69
2022/08/18 07:40:13;;;;;;;16.15;12.15;;;27.20;81.60;;;;;;5037232;28;20033;-68
2022/08/18 07:42:58;;;;;;;12.68;10.43;;;27.20;82.20;;;;;;5037897;28;20098;-69
2022/08/18 07:45:39;;;;;;;13.07;11.32;;;27.30;82.50;;;;;;5058110;28;20045;-69
2022/08/18 07:48:14;;;;;;;15.50;11.98;;;27.40;81.00;;;;;;5055082;28;20036;-68
2022/08/18 07:50:59;;;;;;;13.80;10.05;;;27.40;82.10;;;;;;5049585;28;20025;-69
2022/08/18 07:53:39;;;;;;;14.95;11.77;;;27.50;82.20;;;;;;5053389;28;20104;-69
2022/08/18 07:56:29;;;;;;;17.25;10.80;;;27.50;81.30;;;;;;5063682;28;20021;-69
2022/08/18 07:59:11;;;;;;;12.13;10.48;;;27.60;81.30;;;;;;5036056;28;20036;-69
2022/08/18 08:01:51;;;;;;;14.98;11.15;;;27.60;81.50;;;;;;5052592;28;20107;-69
2022/08/18 08:04:38;;;;;;;19.70;10.00;;;27.70;81.10;;;;;;5053958;28;20017;-69
2022/08/18 08:07:28;;;;;;;13.90;10.32;;;27.80;81.80;;;;;;5052996;28;20110;-69
2022/08/18 08:10:05;;;;;;;13.43;10.13;;;27.80;81.80;;;;;;5052935;28;20041;-69
2022/08/18 08:12:50;;;;;;;13.32;10.60;;;27.90;81.60;;;;;;5053359;28;20025;-69
2022/08/18 08:15:38;;;;;;;14.15;11.35;;;27.90;81.70;;;;;;5069466;28;20028;-69
2022/08/18 08:18:16;;;;;;;14.77;10.57;;;28.00;81.40;;;;;;5051036;28;20116;-69
2022/08/18 08:20:53;;;;;;;16.88;11.30;;;28.00;81.60;;;;;;5051479;28;20037;-69
2022/08/18 08:23:33;;;;;;;17.08;11.88;;;28.10;81.00;;;;;;5060882;28;20024;-68
2022/08/18 08:26:29;;;;;;;16.13;11.05;;;28.10;80.60;;;;;;5068169;28;20029;-69
2022/08/18 08:29:09;;;;;;;12.05;10.70;;;28.20;81.30;;;;;;5052564;28;20083;-67
2022/08/18 08:31:44;;;;;;;12.95;10.18;;;28.30;81.00;;;;;;5051742;28;20058;-68
2022/08/18 08:34:29;;;;;;;14.10;10.68;;;28.30;79.60;;;;;;5050665;28;20083;-67
2022/08/18 08:37:03;;;;;;;20.88;10.43;;;28.40;79.00;;;;;;5035876;28;20117;-68
2022/08/18 08:39:41;;;;;;;12.40;11.10;;;28.40;79.80;;;;;;5038379;28;20028;-68
2022/08/18 08:42:30;;;;;;;17.00;10.25;;;28.50;78.80;;;;;;5049959;28;20353;-67
2022/08/18 08:45:02;;;;;;;15.77;10.48;;;28.50;79.20;;;;;;5057542;28;20107;-68
2022/08/18 08:47:37;;;;;;;14.00;10.10;;;28.60;78.50;;;;;;5050729;28;20566;-68
2022/08/18 08:50:07;;;;;;;13.23;11.70;;;28.70;79.90;;;;;;5052377;28;20112;-68
2022/08/18 08:52:48;;;;;;;13.20;11.02;;;28.70;77.70;;;;;;5053166;28;20380;-68
2022/08/18 08:55:25;;;;;;;14.35;11.23;;;28.70;77.10;;;;;;5052210;28;20055;-68
2022/08/18 08:58:12;;;;;;;11.88;10.68;;;28.80;77.10;;;;;;5049673;28;20031;-68
2022/08/18 09:00:39;;;;;;;11.70;10.38;;;28.90;76.30;;;;;;5051908;28;20051;-68
2022/08/18 09:03:23;;;;;;;13.68;10.82;;;28.90;76.20;;;;;;5038139;28;20025;-68
2022/08/18 09:05:59;;;;;;;18.63;10.88;;;28.90;75.90;;;;;;5052224;28;20048;-68
2022/08/18 09:08:42;;;;;;;14.77;11.05;;;29.00;75.40;;;;;;5034181;28;20044;-68
2022/08/18 09:11:47;;;;;;;15.95;10.63;;;29.00;75.00;;;;;;5052623;28;20075;-68
2022/08/18 09:14:35;;;;;;;12.10;9.52;;;29.10;76.10;;;;;;5015211;28;20041;-67
2022/08/18 09:17:34;;;;;;;15.52;11.50;;;29.20;75.40;;;;;;5052944;28;20095;-67
2022/08/18 09:20:20;;;;;;;11.57;10.38;;;29.20;74.40;;;;;;5040887;28;20026;-67
2022/08/18 09:23:21;;;;;;;12.07;10.77;;;29.20;73.80;;;;;;5032798;28;20037;-67
2022/08/18 09:25:50;;;;;;;11.82;9.82;;;29.30;73.90;;;;;;5013390;28;20037;-66
2022/08/18 09:28:43;;;;;;;13.55;10.65;;;29.30;72.90;;;;;;5050363;28;20404;-66
2022/08/18 09:31:13;;;;;;;10.40;9.38;;;29.40;73.60;;;;;;5048394;28;20476;-67
2022/08/18 09:33:44;;;;;;;14.48;10.93;;;29.40;72.90;;;;;;5054005;28;20449;-67
2022/08/18 09:36:34;;;;;;;12.13;10.55;;;29.50;72.10;;;;;;5046754;28;20496;-68
2022/08/18 09:42:15;;;;;;;14.85;10.70;;;29.60;72.50;;;;;;5042019;28;20028;-68
2022/08/18 09:44:47;;;;;;;15.13;10.60;;;29.60;71.80;;;;;;5051709;28;20435;-68
2022/08/18 09:47:23;;;;;;;12.20;10.07;;;29.70;71.80;;;;;;5033132;28;20117;-68
2022/08/18 09:49:50;;;;;;;10.85;9.25;;;29.80;72.00;;;;;;5046584;28;20064;-67
2022/08/18 09:52:21;;;;;;;16.77;10.13;;;29.90;72.20;;;;;;5053228;28;20030;-67
2022/08/18 09:54:58;;;;;;;11.25;9.77;;;30.00;71.20;;;;;;5051559;28;20017;-67
2022/08/18 09:57:32;;;;;;;13.10;9.48;;;30.10;71.30;;;;;;5041763;28;20017;-67
2022/08/18 10:00:05;;;;;;;9.65;8.50;;;30.10;70.10;;;;;;5046042;28;20511;-67
2022/08/18 10:02:31;;;;;;;11.68;8.25;;;30.20;69.80;;;;;;5050694;28;20441;-67
2022/08/18 10:05:15;;;;;;;13.95;9.98;;;30.20;69.10;;;;;;5051761;28;20147;-68
2022/08/18 10:07:54;;;;;;;13.45;9.15;;;30.30;69.10;;;;;;5028823;28;20047;-67
2022/08/18 10:10:43;;;;;;;16.40;9.27;;;30.30;68.90;;;;;;5045754;28;20503;-67
2022/08/18 10:13:23;;;;;;;13.52;9.63;;;30.40;68.80;;;;;;5031717;28;20029;-68
2022/08/18 10:16:04;;;;;;;11.95;9.35;;;30.50;69.30;;;;;;5038599;28;20377;-68
2022/08/18 10:18:47;;;;;;;12.13;8.73;;;30.60;70.10;;;;;;5068196;28;20048;-68
2022/08/18 10:21:18;;;;;;;11.40;9.60;;;30.70;69.20;;;;;;5048088;28;20044;-68
2022/08/18 10:23:46;;;;;;;10.35;8.50;;;30.80;69.40;;;;;;5047835;28;20064;-67
2022/08/18 10:26:40;;;;;;;11.45;8.90;;;30.80;68.50;;;;;;5053462;28;20049;-67
2022/08/18 10:29:10;;;;;;;13.57;8.70;;;30.90;68.80;;;;;;5011249;28;20098;-67
2022/08/18 10:31:54;;;;;;;12.38;9.27;;;30.90;68.00;;;;;;5044131;28;20387;-67
2022/08/18 10:34:40;;;;;;;10.32;8.00;;;30.90;67.90;;;;;;5043949;28;20361;-67
2022/08/18 10:37:25;;;;;;;17.25;9.52;;;31.00;67.40;;;;;;5039482;28;20469;-67
2022/08/18 10:39:54;;;;;;;11.13;8.60;;;31.10;67.50;;;;;;5038117;28;20661;-67
2022/08/18 10:42:37;;;;;;;12.73;7.93;;;31.20;66.80;;;;;;5042063;28;20096;-67
2022/08/18 10:45:14;;;;;;;8.93;8.02;;;31.30;66.80;;;;;;5042551;28;20486;-67
2022/08/18 10:47:41;;;;;;;13.75;8.48;;;31.40;67.00;;;;;;5045352;28;20037;-67
2022/08/18 10:50:27;;;;;;;12.15;8.20;;;31.50;65.80;;;;;;5047742;28;20043;-67
2022/08/18 10:53:15;;;;;;;13.65;9.05;;;31.60;65.50;;;;;;5049545;28;20481;-67
2022/08/18 10:55:48;;;;;;;10.70;8.13;;;31.60;65.30;;;;;;5041308;28;20033;-67
2022/08/18 10:58:39;;;;;;;9.45;7.40;;;31.70;64.90;;;;;;5062113;28;20090;-67
2022/08/18 11:01:33;;;;;;;8.38;7.35;;;31.70;64.20;;;;;;5027343;28;20040;-67
2022/08/18 11:04:09;;;;;;;12.05;8.30;;;31.80;64.20;;;;;;5031508;28;20112;-67
2022/08/18 11:06:41;;;;;;;10.90;7.38;;;31.80;63.60;;;;;;5048409;28;20053;-67
2022/08/18 11:09:08;;;;;;;10.48;7.63;;;31.80;64.00;;;;;;5050907;28;20037;-66
2022/08/18 11:11:41;;;;;;;9.18;7.20;;;31.90;64.30;;;;;;5049960;28;20037;-66
2022/08/18 11:14:22;;;;;;;9.50;6.63;;;32.00;63.70;;;;;;5050847;28;20023;-67
2022/08/18 11:17:09;;;;;;;7.13;6.43;;;32.00;62.70;;;;;;5049096;28;20401;-67
2022/08/18 11:19:37;;;;;;;8.60;5.78;;;32.10;62.40;;;;;;5031398;28;20040;-67
2022/08/18 11:22:04;;;;;;;7.78;5.95;;;32.10;61.00;;;;;;5051410;28;20059;-68
2022/08/18 11:24:34;;;;;;;11.40;6.43;;;32.20;61.60;;;;;;5055319;28;20033;-68
2022/08/18 11:27:05;;;;;;;6.93;6.22;;;32.30;60.40;;;;;;5034970;28;20035;-68
2022/08/18 11:29:37;;;;;;;7.63;5.88;;;32.40;60.30;;;;;;5053354;28;20399;-68
2022/08/18 11:32:23;;;;;;;6.97;5.97;;;32.40;60.00;;;;;;5054789;28;20147;-67
2022/08/18 11:34:52;;;;;;;7.53;5.97;;;32.50;59.30;;;;;;5053810;28;20033;-67
2022/08/18 11:37:26;;;;;;;9.30;6.93;;;32.60;59.10;;;;;;5053869;28;20048;-68
2022/08/18 11:39:53;;;;;;;;;;;32.60;58.70;;;;;;5053709;28;20117;-67
2022/08/18 11:42:27;;;;;;;8.52;7.07;;;32.60;60.10;;;;;;5051276;28;20363;-68
2022/08/18 11:45:13;;;;;;;;;;;32.70;59.20;;;;;;5054826;28;20033;-67
2022/08/18 11:47:58;;;;;;;10.23;6.93;;;32.70;60.00;;;;;;5052843;28;19916;-66
2022/08/18 11:50:29;;;;;;;7.10;6.40;;;32.70;59.00;;;;;;5053173;28;20382;-65
2022/08/18 11:52:56;;;;;;;8.70;6.25;;;32.70;58.40;;;;;;5047637;28;20024;-66
2022/08/18 11:55:33;;;;;;;8.30;5.63;;;32.80;58.20;;;;;;5054487;28;20338;-66
2022/08/18 11:57:59;;;;;;;7.15;5.85;;;32.70;57.80;;;;;;5039916;28;20033;-66
2022/08/18 12:00:39;;;;;;;9.25;5.80;;;32.80;57.40;;;;;;5039024;28;20139;-67
2022/08/18 12:03:10;;;;;;;8.98;5.60;;;32.80;56.70;;;;;;5051057;28;20031;-66
2022/08/18 12:05:49;;;;;;;6.35;5.20;;;32.90;56.50;;;;;;5053225;28;20049;-66
2022/08/18 12:08:28;;;;;;;9.23;5.75;;;33.00;56.20;;;;;;5049616;28;20068;-65
2022/08/18 12:11:05;;;;;;;7.68;4.88;;;33.10;56.30;;;;;;5051654;28;20035;-66
2022/08/18 12:13:31;;;;;;;6.93;4.65;;;33.10;56.30;;;;;;5051869;28;20396;-66
2022/08/18 12:16:08;;;;;;;5.72;4.63;;;33.10;54.80;;;;;;5052333;28;20025;-65
2022/08/18 12:18:34;;;;;;;4.85;4.35;;;33.10;54.60;;;;;;5052817;28;20032;-66
2022/08/18 12:21:00;;;;;;;6.38;5.13;;;33.20;54.40;;;;;;5052997;28;20041;-66
2022/08/18 12:23:31;;;;;;;10.98;5.57;;;33.30;54.40;;;;;;5052263;28;20029;-66
2022/08/18 12:25:57;;;;;;;5.90;4.93;;;33.30;54.10;;;;;;5035666;28;20066;-66
2022/08/18 12:28:22;;;;;;;7.53;5.10;;;33.40;53.00;;;;;;5053791;28;20512;-65
2022/08/18 12:30:48;;;;;;;7.88;5.20;;;33.50;53.80;;;;;;5050039;28;20409;-66
2022/08/18 12:33:14;;;;;;;6.43;4.88;;;33.50;53.30;;;;;;5052461;28;20025;-65
2022/08/18 12:35:40;;;;;;;5.80;5.20;;;33.70;52.90;;;;;;5052681;28;20036;-64
2022/08/18 12:38:06;;;;;;;6.07;5.00;;;33.70;52.30;;;;;;5034304;28;20025;-66
2022/08/18 12:40:31;;;;;;;6.43;5.63;;;33.80;52.50;;;;;;5053609;28;20029;-65
2022/08/18 12:42:57;;;;;;;6.60;5.90;;;33.90;52.40;;;;;;5053035;28;20100;-65
2022/08/18 12:45:24;;;;;;;10.43;6.57;;;34.00;52.70;;;;;;5052997;28;20025;-65
2022/08/18 12:47:50;;;;;;;7.32;5.80;;;34.00;52.60;;;;;;5053287;28;20576;-65
2022/08/18 12:50:15;;;;;;;6.68;5.97;;;34.00;52.20;;;;;;5052679;28;20116;-65
2022/08/18 12:52:41;;;;;;;8.15;6.00;;;33.90;52.40;;;;;;5053234;28;20024;-65
2022/08/18 12:55:07;;;;;;;5.85;5.25;;;34.00;52.30;;;;;;5051926;28;20032;-66
2022/08/18 12:57:34;;;;;;;7.15;5.82;;;34.10;52.20;;;;;;5053023;28;20049;-64
2022/08/18 12:59:59;;;;;;;7.00;6.30;;;34.20;51.70;;;;;;5052463;28;20476;-65
2022/08/18 13:02:25;;;;;;;6.40;5.65;;;34.30;51.70;;;;;;5053101;28;20028;-65
2022/08/18 13:04:51;;;;;;;9.93;6.03;;;34.40;51.10;;;;;;5055944;28;20071;-65
2022/08/18 13:07:17;;;;;;;5.53;4.55;;;34.40;51.30;;;;;;5052282;28;20025;-65
2022/08/18 13:09:43;;;;;;;7.45;5.63;;;34.50;51.70;;;;;;5034026;28;20037;-64
2022/08/18 13:12:10;;;;;;;7.95;5.72;;;34.50;51.00;;;;;;5040522;28;20062;-65
2022/08/18 13:14:37;;;;;;;6.72;5.78;;;34.50;51.50;;;;;;5042647;28;20029;-65
2022/08/18 13:17:02;;;;;;;6.80;5.88;;;34.50;51.50;;;;;;5052529;28;20021;-66
2022/08/18 13:19:28;;;;;;;6.30;5.70;;;34.60;51.30;;;;;;5051934;28;20452;-66